Time;durP1;ratioP1;P1;durP2;ratioP2;P2;SDS_P1;SDS_P2;PMS_P1;PMS_P2;Temp;Humidity;BMP_temperature;BMP_pressure;BME280_temperature;BME280_humidity;BME280_pressure;Samples;Min_cycle;Max_cycle;Signal;HPM_P1;HPM_P2
2023/08/14 00:01:44;;;;;;;8.60;2.15;;;;;;;14.01;100.00;101672.06;5052640;28;20029;-77
2023/08/14 00:04:10;;;;;;;9.90;2.55;;;;;;;13.98;100.00;101667.00;5052397;28;20081;-78
2023/08/14 00:06:35;;;;;;;8.18;2.35;;;;;;;13.91;100.00;101656.88;5052479;28;20404;-77
2023/08/14 00:09:01;;;;;;;9.05;2.35;;;;;;;13.90;100.00;101660.53;5070222;28;20035;-77
2023/08/14 00:11:26;;;;;;;7.15;2.25;;;;;;;13.87;100.00;101663.50;5069004;28;20101;-77
2023/08/14 00:13:54;;;;;;;7.47;2.10;;;;;;;13.86;100.00;101669.81;5055567;28;20060;-77
2023/08/14 00:16:20;;;;;;;6.43;2.05;;;;;;;13.83;100.00;101663.91;5090554;28;20059;-76
2023/08/14 00:18:45;;;;;;;8.70;2.40;;;;;;;13.80;100.00;101662.34;5090687;28;20059;-76
2023/08/14 00:21:12;;;;;;;7.80;2.15;;;;;;;13.76;100.00;101660.94;5090484;28;20032;-76
2023/08/14 00:23:37;;;;;;;8.43;2.50;;;;;;;13.73;100.00;101666.56;5090623;28;20047;-76
2023/08/14 00:26:03;;;;;;;4.30;1.80;;;;;;;13.69;100.00;101658.00;5090520;28;20076;-75
2023/08/14 00:28:28;;;;;;;4.60;1.83;;;;;;;13.68;100.00;101655.47;5072122;28;20111;-77
2023/08/14 00:30:54;;;;;;;2.80;1.38;;;;;;;13.65;100.00;101655.75;5090468;28;20085;-77
2023/08/14 00:33:19;;;;;;;5.68;1.67;;;;;;;13.61;100.00;101657.81;5072317;28;20462;-77
2023/08/14 00:35:44;;;;;;;7.20;1.70;;;;;;;13.58;100.00;101660.78;5090720;28;20354;-76
2023/08/14 00:38:10;;;;;;;4.20;1.90;;;;;;;13.57;100.00;101654.59;5071733;28;20090;-77
2023/08/14 00:40:35;;;;;;;7.90;2.70;;;;;;;13.56;100.00;101655.56;5055429;28;20040;-77
2023/08/14 00:43:01;;;;;;;8.32;2.53;;;;;;;13.54;100.00;101651.34;5090380;28;20436;-77
2023/08/14 00:45:27;;;;;;;5.60;1.98;;;;;;;13.53;100.00;101652.34;5090316;28;20200;-76
2023/08/14 00:47:52;;;;;;;7.72;2.60;;;;;;;13.51;100.00;101641.78;5090389;28;20115;-77
2023/08/14 00:50:18;;;;;;;7.65;2.22;;;;;;;13.50;100.00;101644.59;5072125;28;20124;-80
2023/08/14 00:52:47;;;;;;;4.70;2.00;;;;;;;13.45;100.00;101639.69;5091815;28;20024;-79
2023/08/14 00:55:18;;;;;;;7.68;2.38;;;;;;;13.43;100.00;101636.28;5091856;28;20024;-80
2023/08/14 00:57:44;;;;;;;5.13;2.58;;;;;;;13.40;100.00;101637.41;5074529;28;20081;-81
2023/08/14 01:00:11;;;;;;;4.90;2.15;;;;;;;13.36;100.00;101633.31;5095890;28;20076;-81
2023/08/14 01:02:37;;;;;;;3.17;1.80;;;;;;;13.33;100.00;101633.56;5095692;28;20491;-80
2023/08/14 01:05:02;;;;;;;7.00;2.08;;;;;;;13.30;100.00;101636.53;5077207;28;20035;-81
2023/08/14 01:07:29;;;;;;;3.20;2.05;;;;;;;13.30;100.00;101635.66;5094968;28;20051;-79
2023/08/14 01:09:55;;;;;;;5.30;2.03;;;;;;;13.27;100.00;101639.47;5095394;28;20020;-81
2023/08/14 01:12:52;;;;;;;6.75;1.85;;;;;;;13.23;100.00;101635.38;5095032;28;20025;-80
2023/08/14 01:15:25;;;;;;;6.82;2.30;;;;;;;13.23;100.00;101630.03;5078197;28;20048;-80
2023/08/14 01:17:55;;;;;;;7.20;2.30;;;;;;;13.25;100.00;101625.38;5095710;28;20035;-80
2023/08/14 01:20:25;;;;;;;6.05;2.70;;;;;;;13.26;100.00;101623.56;5095493;28;20043;-80
2023/08/14 01:23:03;;;;;;;10.90;3.22;;;;;;;13.26;100.00;101627.09;5094754;28;20027;-80
2023/08/14 01:25:33;;;;;;;11.38;3.00;;;;;;;13.33;100.00;101625.56;5095643;28;20031;-80
2023/08/14 01:28:00;;;;;;;6.18;2.83;;;;;;;13.31;100.00;101622.16;5095080;28;20133;-79
2023/08/14 01:30:26;;;;;;;4.53;2.03;;;;;;;13.29;100.00;101613.44;5095279;28;20032;-79
2023/08/14 01:32:53;;;;;;;7.90;2.70;;;;;;;13.30;100.00;101606.25;5094718;28;20028;-79
2023/08/14 01:35:20;;;;;;;7.20;2.92;;;;;;;13.29;100.00;101607.25;5094945;28;20050;-79
2023/08/14 01:38:07;;;;;;;4.55;2.42;;;;;;;13.25;100.00;101609.34;5095619;28;20031;-79
2023/08/14 01:40:41;;;;;;;4.38;2.60;;;;;;;13.25;100.00;101611.19;5076607;28;20032;-80
2023/08/14 01:43:13;;;;;;;9.60;2.90;;;;;;;13.23;100.00;101606.81;5094986;28;20131;-80
2023/08/14 01:45:39;;;;;;;;;;;;;;;13.22;100.00;101606.94;5095820;28;20115;-80
2023/08/14 01:48:08;;;;;;;8.77;2.38;;;;;;;13.16;100.00;101600.31;5095014;28;19947;-79
2023/08/14 01:50:35;;;;;;;3.53;2.10;;;;;;;13.12;100.00;101590.06;5094673;28;20027;-80
2023/08/14 01:53:01;;;;;;;10.82;2.95;;;;;;;13.14;100.00;101590.78;5094731;28;20065;-81
2023/08/14 01:55:26;;;;;;;7.07;2.58;;;;;;;13.12;100.00;101595.41;5094909;28;20115;-80
2023/08/14 01:57:53;;;;;;;9.05;3.33;;;;;;;13.11;100.00;101589.22;5095163;28;20441;-80
2023/08/14 02:00:19;;;;;;;5.80;2.50;;;;;;;13.07;100.00;101584.28;5094820;28;20028;-81
2023/08/14 02:02:44;;;;;;;7.18;2.55;;;;;;;13.04;100.00;101585.41;5076068;28;20089;-79
2023/08/14 02:05:09;;;;;;;6.43;3.05;;;;;;;12.99;100.00;101583.16;5094637;28;20430;-79
2023/08/14 02:07:35;;;;;;;8.15;2.80;;;;;;;12.96;100.00;101583.41;5076179;28;20032;-79
2023/08/14 02:10:00;;;;;;;4.80;2.58;;;;;;;12.93;100.00;101577.50;5093661;28;20031;-79
2023/08/14 02:12:25;;;;;;;13.38;4.07;;;;;;;12.93;100.00;101575.69;5094397;28;20032;-79
2023/08/14 02:14:51;;;;;;;14.50;4.28;;;;;;;12.93;100.00;101578.34;5094048;28;20044;-80
2023/08/14 02:17:16;;;;;;;7.82;3.10;;;;;;;12.94;100.00;101568.50;5094499;28;20032;-79
2023/08/14 02:19:42;;;;;;;13.45;3.33;;;;;;;12.95;100.00;101570.19;5075541;28;20036;-79
2023/08/14 02:22:07;;;;;;;10.25;3.20;;;;;;;12.97;100.00;101570.91;5094217;28;20043;-80
2023/08/14 02:24:32;;;;;;;10.38;3.75;;;;;;;13.00;100.00;101571.50;5093751;28;20464;-79
2023/08/14 02:26:58;;;;;;;7.45;2.78;;;;;;;13.02;100.00;101574.84;5093480;28;20035;-79
2023/08/14 02:29:23;;;;;;;15.15;3.90;;;;;;;13.05;100.00;101574.56;5093813;28;20039;-79
2023/08/14 02:31:50;;;;;;;5.32;3.47;;;;;;;13.06;100.00;101567.41;5093417;28;20499;-80
2023/08/14 02:34:32;;;;;;;8.23;3.72;;;;;;;13.07;100.00;101566.44;5093820;28;20363;-80
2023/08/14 02:36:57;;;;;;;12.32;4.18;;;;;;;13.09;100.00;101568.97;5075614;28;20063;-80
2023/08/14 02:39:23;;;;;;;12.23;3.90;;;;;;;13.12;100.00;101568.69;5075170;28;20060;-82
2023/08/14 02:41:48;;;;;;;14.68;3.95;;;;;;;13.15;100.00;101568.41;5093776;28;20032;-80
2023/08/14 02:44:13;;;;;;;10.55;4.28;;;;;;;13.15;100.00;101568.41;5075408;28;20072;-80
2023/08/14 02:46:39;;;;;;;11.27;4.63;;;;;;;13.17;100.00;101571.81;5075757;28;20028;-80
2023/08/14 02:49:04;;;;;;;8.57;4.05;;;;;;;13.16;100.00;101562.09;5075611;28;20028;-80
2023/08/14 02:51:30;;;;;;;10.00;4.47;;;;;;;13.20;100.00;101569.69;5093542;28;20035;-81
2023/08/14 02:53:55;;;;;;;15.13;4.10;;;;;;;13.17;100.00;101567.28;5075344;28;20120;-79
2023/08/14 02:56:20;;;;;;;12.90;3.90;;;;;;;13.21;100.00;101568.72;5092768;28;20094;-79
2023/08/14 02:58:46;;;;;;;13.68;4.80;;;;;;;13.22;100.00;101566.88;5093451;28;20112;-79
2023/08/14 03:01:11;;;;;;;11.02;3.75;;;;;;;13.21;100.00;101576.72;5093166;28;20028;-79
2023/08/14 03:03:36;;;;;;;12.98;3.90;;;;;;;13.20;100.00;101582.22;5059281;28;20130;-79
2023/08/14 03:06:02;;;;;;;11.55;3.95;;;;;;;13.19;100.00;101581.34;5093308;28;20024;-79
2023/08/14 03:08:28;;;;;;;10.77;3.70;;;;;;;13.18;100.00;101577.00;5074820;28;20036;-79
2023/08/14 03:10:53;;;;;;;12.98;4.10;;;;;;;13.19;100.00;101569.81;5093580;28;20028;-79
2023/08/14 03:13:19;;;;;;;14.43;4.38;;;;;;;13.21;100.00;101578.53;5093052;28;20078;-79
2023/08/14 03:15:44;;;;;;;15.55;4.18;;;;;;;13.22;100.00;101585.56;5093048;28;20087;-79
2023/08/14 03:18:09;;;;;;;9.55;4.10;;;;;;;13.22;100.00;101570.38;5093288;28;20048;-78
2023/08/14 03:20:35;;;;;;;14.07;4.03;;;;;;;13.22;100.00;101575.72;5092922;28;20036;-79
2023/08/14 03:23:00;;;;;;;9.45;3.60;;;;;;;13.20;100.00;101568.84;5092895;28;20024;-79
2023/08/14 03:25:26;;;;;;;10.15;3.40;;;;;;;13.18;100.00;101571.66;5093404;28;20054;-79
2023/08/14 03:27:51;;;;;;;12.13;4.03;;;;;;;13.19;100.00;101567.97;5075102;28;20105;-80
2023/08/14 03:30:16;;;;;;;6.80;3.55;;;;;;;13.18;100.00;101562.78;5074642;28;20115;-78
2023/08/14 03:32:42;;;;;;;15.40;3.85;;;;;;;13.18;100.00;101568.13;5092738;28;20073;-79
2023/08/14 03:35:08;;;;;;;9.68;3.47;;;;;;;13.17;100.00;101567.28;5092741;28;20032;-80
2023/08/14 03:37:34;;;;;;;17.55;4.25;;;;;;;13.17;100.00;101569.97;5092674;28;20491;-80
2023/08/14 03:39:59;;;;;;;9.27;3.22;;;;;;;13.17;100.00;101567.28;5075179;28;20119;-80
2023/08/14 03:42:25;;;;;;;8.65;3.55;;;;;;;13.17;100.00;101571.81;5092623;28;20024;-79
2023/08/14 03:44:50;;;;;;;11.32;3.63;;;;;;;13.18;100.00;101574.34;5092686;28;20452;-80
2023/08/14 03:47:15;;;;;;;10.27;3.83;;;;;;;13.20;100.00;101574.19;5092660;28;20036;-79
2023/08/14 03:49:41;;;;;;;14.48;3.83;;;;;;;13.20;100.00;101567.00;5092598;28;20375;-80
2023/08/14 03:52:06;;;;;;;9.07;3.47;;;;;;;13.22;100.00;101567.69;5092433;28;20115;-79
2023/08/14 03:54:31;;;;;;;5.82;2.70;;;;;;;13.23;100.00;101566.72;5073864;28;20429;-81
2023/08/14 03:56:57;;;;;;;9.38;3.50;;;;;;;13.23;100.00;101560.56;5073929;28;20069;-80
2023/08/14 03:59:22;;;;;;;10.07;3.60;;;;;;;13.27;100.00;101570.00;5092530;28;20043;-79
2023/08/14 04:01:48;;;;;;;7.63;2.85;;;;;;;13.29;100.00;101570.69;5092259;28;20157;-79
2023/08/14 04:04:13;;;;;;;7.05;3.22;;;;;;;13.30;100.00;101563.50;5091976;28;20344;-80
2023/08/14 04:06:39;;;;;;;6.20;2.83;;;;;;;13.30;100.00;101566.16;5092302;28;20035;-80
2023/08/14 04:09:05;;;;;;;5.43;3.00;;;;;;;13.30;100.00;101566.16;5092365;28;20115;-80
2023/08/14 04:11:32;;;;;;;3.78;2.58;;;;;;;13.31;100.00;101568.69;5091950;28;20028;-79
2023/08/14 04:13:58;;;;;;;8.38;3.17;;;;;;;13.29;100.00;101564.50;5091564;28;20484;-78
2023/08/14 04:16:40;;;;;;;13.90;3.22;;;;;;;13.30;100.00;101560.81;5091550;28;20052;-79
2023/08/14 04:19:06;;;;;;;11.32;3.25;;;;;;;13.29;100.00;101562.66;5091857;28;20024;-79
2023/08/14 04:21:31;;;;;;;8.02;2.83;;;;;;;13.27;100.00;101561.97;5092083;28;20028;-79
2023/08/14 04:23:57;;;;;;;8.18;3.03;;;;;;;13.28;100.00;101562.81;5091569;28;20035;-78
2023/08/14 04:26:22;;;;;;;6.40;2.97;;;;;;;13.31;100.00;101567.88;5073485;28;20051;-79
2023/08/14 04:28:47;;;;;;;7.05;2.70;;;;;;;13.31;100.00;101562.53;5091567;28;20028;-78
2023/08/14 04:31:13;;;;;;;4.93;2.53;;;;;;;13.32;100.00;101567.72;5091837;28;20039;-80
2023/08/14 04:33:38;;;;;;;6.28;2.80;;;;;;;13.32;100.00;101556.22;5073151;28;20043;-80
2023/08/14 04:36:04;;;;;;;5.38;2.95;;;;;;;13.32;100.00;101559.72;5091440;28;20119;-79
2023/08/14 04:38:29;;;;;;;7.70;3.00;;;;;;;13.33;100.00;101555.19;5073396;28;20097;-78
2023/08/14 04:40:55;;;;;;;5.10;3.00;;;;;;;13.34;100.00;101552.41;5091554;28;20032;-80
2023/08/14 04:43:20;;;;;;;8.52;2.60;;;;;;;13.36;100.00;101557.63;5091740;28;20032;-79
2023/08/14 04:45:46;;;;;;;6.85;2.90;;;;;;;13.38;100.00;101561.03;5091867;28;20039;-80
2023/08/14 04:48:11;;;;;;;5.47;2.60;;;;;;;13.38;100.00;101547.66;5091903;28;20035;-79
2023/08/14 04:50:36;;;;;;;9.20;2.92;;;;;;;13.41;100.00;101544.69;5091874;28;20043;-79
2023/08/14 04:53:03;;;;;;;5.60;2.45;;;;;;;13.43;100.00;101549.91;5091689;28;20078;-80
2023/08/14 04:55:28;;;;;;;6.82;2.85;;;;;;;13.43;100.00;101537.38;5092187;28;20055;-80
2023/08/14 04:57:53;;;;;;;4.55;2.47;;;;;;;13.44;100.00;101539.06;5091502;28;20085;-80
2023/08/14 05:00:19;;;;;;;8.25;2.55;;;;;;;13.44;100.00;101541.75;5074000;28;20116;-79
2023/08/14 05:02:44;;;;;;;8.07;2.45;;;;;;;13.46;100.00;101537.09;5090162;28;20044;-79
2023/08/14 05:05:10;;;;;;;3.42;2.20;;;;;;;13.48;100.00;101540.50;5091542;28;20036;-78
2023/08/14 05:07:35;;;;;;;7.47;2.53;;;;;;;13.49;100.00;101542.16;5091315;28;20032;-78
2023/08/14 05:10:00;;;;;;;3.70;2.30;;;;;;;13.52;100.00;101536.53;5074301;28;20036;-80
2023/08/14 05:12:26;;;;;;;6.00;2.25;;;;;;;13.54;100.00;101539.06;5091485;28;20124;-80
2023/08/14 05:14:52;;;;;;;6.18;2.15;;;;;;;13.55;100.00;101540.75;5073933;28;20039;-78
2023/08/14 05:17:18;;;;;;;7.30;2.63;;;;;;;13.55;100.00;101544.28;5091697;28;20123;-78
2023/08/14 05:19:43;;;;;;;9.80;2.60;;;;;;;13.56;100.00;101547.78;5092457;28;20063;-79
2023/08/14 05:22:08;;;;;;;9.00;2.30;;;;;;;13.55;100.00;101543.44;5074555;28;20036;-80
2023/08/14 05:24:34;;;;;;;5.00;2.55;;;;;;;13.56;100.00;101548.63;5093061;28;20345;-80
2023/08/14 05:26:59;;;;;;;5.95;2.55;;;;;;;13.59;100.00;101547.50;5093214;28;20028;-80
2023/08/14 05:29:25;;;;;;;6.20;2.30;;;;;;;13.61;100.00;101552.72;5091795;28;20032;-81
2023/08/14 05:31:50;;;;;;;6.50;2.28;;;;;;;13.61;100.00;101542.84;5073192;28;20391;-80
2023/08/14 05:34:16;;;;;;;5.15;2.42;;;;;;;13.67;100.00;101552.97;5091249;28;20028;-79
2023/08/14 05:36:41;;;;;;;4.75;2.53;;;;;;;13.71;100.00;101548.22;5091166;28;20033;-79
2023/08/14 05:39:08;;;;;;;8.43;2.00;;;;;;;13.78;100.00;101546.66;5091289;28;20379;-80
2023/08/14 05:41:34;;;;;;;3.13;2.22;;;;;;;13.85;100.00;101545.09;5091247;28;20469;-80
2023/08/14 05:43:59;;;;;;;5.90;2.47;;;;;;;13.94;100.00;101543.38;5073819;28;20036;-80
2023/08/14 05:46:25;;;;;;;6.10;2.28;;;;;;;14.03;100.00;101555.91;5094615;28;20032;-80
2023/08/14 05:48:51;;;;;;;6.95;2.58;;;;;;;14.11;100.00;101544.47;5095091;28;20032;-82
2023/08/14 05:51:17;;;;;;;5.93;2.65;;;;;;;14.21;100.00;101541.75;5095638;28;20055;-79
2023/08/14 05:53:42;;;;;;;7.10;2.50;;;;;;;14.27;100.00;101539.34;5096179;28;20032;-79
2023/08/14 05:56:07;;;;;;;6.35;2.60;;;;;;;14.34;100.00;101536.09;5095458;28;20028;-79
2023/08/14 05:58:33;;;;;;;5.90;2.85;;;;;;;14.41;100.00;101537.19;5096175;28;20071;-79
2023/08/14 06:00:58;;;;;;;6.65;2.38;;;;;;;14.47;100.00;101547.31;5095630;28;20032;-79
2023/08/14 06:03:24;;;;;;;4.57;2.50;;;;;;;14.53;100.00;101540.53;5095356;28;20036;-80
2023/08/14 06:05:49;;;;;;;8.52;2.50;;;;;;;14.59;100.00;101540.75;5095581;28;20082;-81
2023/08/14 06:08:14;;;;;;;8.57;2.70;;;;;;;14.68;100.00;101554.28;5077039;28;20064;-80
2023/08/14 06:10:40;;;;;;;4.30;2.80;;;;;;;14.76;100.00;101544.53;5078169;28;20475;-80
2023/08/14 06:13:07;;;;;;;4.60;2.55;;;;;;;14.86;100.00;101548.97;5095966;28;20483;-81
2023/08/14 06:15:32;;;;;;;5.38;2.70;;;;;;;14.95;100.00;101542.72;5097481;28;20059;-81
2023/08/14 06:17:58;;;;;;;5.13;2.78;;;;;;;15.06;100.00;101544.34;5077326;28;20491;-81
2023/08/14 06:20:23;;;;;;;6.03;2.90;;;;;;;15.16;100.00;101543.25;5095247;28;20042;-80
2023/08/14 06:22:49;;;;;;;4.78;2.38;;;;;;;15.28;100.00;101537.69;5094946;28;20472;-81
2023/08/14 06:25:16;;;;;;;9.38;2.92;;;;;;;15.38;100.00;101549.19;5095017;28;20448;-81
2023/08/14 06:27:42;;;;;;;8.82;2.90;;;;;;;15.45;100.00;101547.59;5095405;28;20077;-81
2023/08/14 06:30:09;;;;;;;5.47;2.40;;;;;;;15.52;100.00;101548.66;5095390;28;20115;-80
2023/08/14 06:32:35;;;;;;;8.85;2.50;;;;;;;15.61;100.00;101546.84;5094919;28;20035;-80
2023/08/14 06:35:00;;;;;;;4.40;2.70;;;;;;;15.72;100.00;101548.47;5094864;28;20032;-80
2023/08/14 06:37:25;;;;;;;5.47;2.50;;;;;;;15.80;100.00;101551.25;5094941;28;20103;-81
2023/08/14 06:39:51;;;;;;;8.52;2.90;;;;;;;15.90;100.00;101556.53;5094913;28;20565;-80
2023/08/14 06:42:16;;;;;;;9.50;3.38;;;;;;;15.97;100.00;101556.72;5094808;28;20130;-82
2023/08/14 06:44:41;;;;;;;8.48;3.00;;;;;;;16.03;100.00;101556.94;5094582;28;20135;-84
2023/08/14 06:47:07;;;;;;;11.30;3.63;;;;;;;16.11;100.00;101557.97;5094100;28;20112;-82
2023/08/14 06:49:32;;;;;;;7.18;3.20;;;;;;;16.10;100.00;101565.19;5075841;28;20034;-84
2023/08/14 06:51:57;;;;;;;9.07;3.47;;;;;;;16.12;100.00;101559.66;5094246;28;20044;-82
2023/08/14 06:54:23;;;;;;;8.65;3.22;;;;;;;16.20;100.00;101568.63;5094173;28;20372;-83
2023/08/14 06:56:49;;;;;;;6.55;2.97;;;;;;;16.30;100.00;101568.53;5075392;28;20082;-85
2023/08/14 06:59:14;;;;;;;9.95;3.75;;;;;;;16.44;100.00;101561.72;5094158;28;20159;-84
2023/08/14 07:01:40;;;;;;;5.20;2.97;;;;;;;16.64;100.00;101548.03;5094174;28;20426;-80
2023/08/14 07:04:06;;;;;;;4.90;2.83;;;;;;;16.88;100.00;101556.22;5094539;28;20032;-83
2023/08/14 07:06:31;;;;;;;5.13;3.10;;;;;;;17.18;100.00;101555.78;5094341;28;20035;-82
2023/08/14 07:08:57;;;;;;;6.22;2.75;;;;;;;17.44;100.00;101561.03;5077239;28;20059;-81
2023/08/14 07:11:22;;;;;;;6.32;2.72;;;;;;;17.59;100.00;101564.72;5093869;28;20111;-81
2023/08/14 07:13:47;;;;;;;13.48;2.78;;;;;;;17.67;100.00;101566.56;5095107;28;20090;-84
2023/08/14 07:16:13;;;;;;;10.18;3.03;;;;;;;17.70;100.00;101570.78;5093546;28;20059;-83
2023/08/14 07:18:41;;;;;;;5.80;2.65;;;;;;;17.70;100.00;101568.94;5094016;28;20090;-83
2023/08/14 07:21:07;;;;;;;8.07;3.15;;;;;;;17.70;100.00;101576.19;5075952;28;20036;-84
2023/08/14 07:23:32;;;;;;;7.10;2.47;;;;;;;17.67;100.00;101577.34;5094233;28;20028;-83
2023/08/14 07:25:59;;;;;;;4.63;2.33;;;;;;;17.62;100.00;101577.03;5093996;28;20032;-81
2023/08/14 07:28:26;;;;;;;9.13;2.95;;;;;;;17.53;100.00;101572.66;5092404;28;20448;-83
2023/08/14 07:30:51;;;;;;;6.13;2.72;;;;;;;17.54;100.00;101572.47;5093247;28;20036;-82
2023/08/14 07:33:16;;;;;;;4.97;2.63;;;;;;;17.54;100.00;101569.78;5092878;28;20051;-82
2023/08/14 07:35:42;;;;;;;12.25;2.75;;;;;;;17.58;100.00;101559.53;5074856;28;20368;-82
2023/08/14 07:38:08;;;;;;;7.75;2.83;;;;;;;17.68;100.00;101535.16;5093167;28;20093;-82
2023/08/14 07:40:33;;;;;;;5.68;2.30;;;;;;;17.77;100.00;101531.44;5092472;28;20435;-82
2023/08/14 07:42:59;;;;;;;5.68;2.20;;;;;;;17.95;100.00;101528.59;5074234;28;20118;-83
2023/08/14 07:45:24;;;;;;;8.70;2.60;;;;;;;18.08;100.00;101528.06;5092956;28;20028;-83
2023/08/14 07:47:49;;;;;;;5.93;2.42;;;;;;;18.27;100.00;101542.97;5093559;28;20476;-83
2023/08/14 07:50:15;;;;;;;9.50;3.17;;;;;;;18.47;100.00;101536.16;5093590;28;20376;-83
2023/08/14 07:52:40;;;;;;;6.25;2.70;;;;;;;18.63;100.00;101529.88;5093790;28;20414;-83
2023/08/14 07:55:06;;;;;;;10.88;3.17;;;;;;;18.83;100.00;101542.94;5093201;28;20032;-83
2023/08/14 07:57:31;;;;;;;6.80;3.30;;;;;;;19.07;100.00;101522.28;5093456;28;20050;-83
2023/08/14 07:59:57;;;;;;;5.97;2.78;;;;;;;19.35;100.00;101528.78;5075525;28;20047;-85
2023/08/14 08:02:22;;;;;;;6.43;2.90;;;;;;;19.75;100.00;101525.94;5093090;28;20096;-84
2023/08/14 08:04:48;;;;;;;9.48;2.75;;;;;;;20.11;100.00;101532.53;5075136;28;20028;-84
2023/08/14 08:07:14;;;;;;;8.20;3.20;;;;;;;20.38;100.00;101540.00;5074353;28;20043;-87
2023/08/14 08:09:39;;;;;;;5.03;2.50;;;;;;;20.55;100.00;101535.22;5094561;28;20028;-85
2023/08/14 08:12:06;;;;;;;7.75;2.60;;;;;;;20.63;100.00;101526.19;5093190;28;20032;-84
2023/08/14 08:14:32;;;;;;;12.45;3.00;;;;;;;20.74;100.00;101517.59;5094515;28;20035;-81
2023/08/14 08:16:58;;;;;;;5.78;1.90;;;;;;;20.93;100.00;101518.03;5075578;28;20387;-82
2023/08/14 08:19:23;;;;;;;6.47;1.98;;;;;;;21.15;100.00;101521.56;5058282;28;20032;-81
2023/08/14 08:21:49;;;;;;;5.32;2.17;;;;;;;21.48;100.00;101526.44;5092795;28;20553;-81
2023/08/14 08:24:14;;;;;;;6.28;1.95;;;;;;;21.74;100.00;101520.47;5092940;28;20360;-83
2023/08/14 08:26:39;;;;;;;3.78;1.77;;;;;;;22.00;100.00;101524.38;5058415;28;20519;-85
2023/08/14 08:29:05;;;;;;;3.10;1.50;;;;;;;22.35;100.00;101524.44;5093101;28;20464;-81
2023/08/14 08:31:31;;;;;;;6.80;1.40;;;;;;;22.79;100.00;101527.72;5093386;28;20432;-84
2023/08/14 08:33:56;;;;;;;6.85;1.33;;;;;;;23.11;100.00;101530.75;5092665;28;20115;-82
2023/08/14 08:36:22;;;;;;;7.05;1.48;;;;;;;23.29;100.00;101525.59;5075588;28;20032;-84
2023/08/14 08:38:48;;;;;;;5.28;1.50;;;;;;;23.30;100.00;101527.25;5092540;28;20036;-84
2023/08/14 08:41:18;;;;;;;6.70;1.50;;;;;;;23.25;100.00;101529.75;5093164;28;20032;-82
2023/08/14 08:43:44;;;;;;;2.25;1.23;;;;;;;23.31;100.00;101526.19;5093246;28;20062;-83
2023/08/14 08:46:10;;;;;;;5.32;1.40;;;;;;;23.43;100.00;101526.44;5092494;28;20065;-85
2023/08/14 08:48:42;;;;;;;5.10;1.48;;;;;;;23.49;100.00;101530.19;5093152;28;20082;-85
2023/08/14 08:51:08;;;;;;;5.70;1.45;;;;;;;23.49;100.00;101517.44;5093127;28;20043;-85
2023/08/14 08:53:35;;;;;;;9.00;2.10;;;;;;;23.42;100.00;101535.59;5092643;28;20032;-84
2023/08/14 08:56:01;;;;;;;5.00;1.50;;;;;;;23.48;100.00;101534.78;5092773;28;20042;-84
2023/08/14 08:58:26;;;;;;;6.28;1.50;;;;;;;23.71;100.00;101534.38;5092886;28;20131;-87
2023/08/14 09:00:54;;;;;;;4.00;1.58;;;;;;;23.79;97.69;101532.50;5092775;28;20039;-85
2023/08/14 09:03:20;;;;;;;2.60;1.40;;;;;;;23.94;100.00;101536.69;5074524;28;20043;-86
2023/08/14 09:05:46;;;;;;;7.15;1.60;;;;;;;24.21;100.00;101525.72;5093138;28;20306;-87
2023/08/14 09:08:11;;;;;;;4.45;2.03;;;;;;;24.53;98.43;101519.56;5092900;28;20577;-88
2023/08/14 09:10:37;;;;;;;6.70;2.03;;;;;;;25.03;93.34;101521.66;5094518;28;20028;-85
2023/08/14 09:13:02;;;;;;;4.18;2.00;;;;;;;25.66;83.05;101510.72;5092730;28;20109;-86
2023/08/14 09:15:28;;;;;;;3.53;1.60;;;;;;;26.31;78.52;101503.97;5094543;28;20055;-85
2023/08/14 09:17:54;;;;;;;5.43;1.80;;;;;;;26.71;74.41;101499.97;5092937;28;20394;-85
2023/08/14 09:20:20;;;;;;;7.75;1.80;;;;;;;26.87;70.38;101499.31;5077384;28;20028;-84
2023/08/14 09:22:46;;;;;;;7.80;1.77;;;;;;;27.19;70.27;101496.28;5096935;28;20032;-83
2023/08/14 09:25:12;;;;;;;4.00;1.60;;;;;;;27.45;68.69;101496.94;5096098;28;20391;-83
2023/08/14 09:27:37;;;;;;;7.53;2.03;;;;;;;27.19;67.66;101490.84;5096233;28;20024;-84
2023/08/14 09:30:05;;;;;;;6.82;2.13;;;;;;;27.59;65.40;101495.66;5077890;28;20035;-84
2023/08/14 09:32:30;;;;;;;3.80;1.65;;;;;;;27.61;65.27;101503.63;5096279;28;20032;-79
2023/08/14 09:35:00;;;;;;;5.10;2.03;;;;;;;27.89;62.25;101499.34;5096163;28;20039;-84
2023/08/14 09:37:29;;;;;;;6.80;2.00;;;;;;;28.12;64.09;101498.50;5096375;28;20028;-84
2023/08/14 09:40:08;;;;;;;8.38;1.92;;;;;;;28.32;60.16;101498.13;5079016;28;20274;-83
2023/08/14 09:42:34;;;;;;;7.60;1.92;;;;;;;28.60;58.42;101488.28;5096480;28;20024;-83
2023/08/14 09:45:00;;;;;;;3.20;1.50;;;;;;;28.76;60.47;101481.19;5095811;28;20115;-84
2023/08/14 09:47:25;;;;;;;5.70;1.70;;;;;;;28.97;60.14;101483.19;5095964;28;20043;-85
2023/08/14 09:49:53;;;;;;;6.53;1.83;;;;;;;28.52;55.68;101480.44;5096221;28;20032;-86
2023/08/14 09:52:20;;;;;;;7.18;1.75;;;;;;;28.67;58.25;101478.00;5098457;28;20032;-84
2023/08/14 09:54:48;;;;;;;5.75;2.00;;;;;;;28.61;55.35;101473.53;5096621;28;20035;-82
2023/08/14 09:57:13;;;;;;;4.70;1.88;;;;;;;28.51;55.57;101474.13;5097618;28;20052;-84
2023/08/14 09:59:40;;;;;;;6.10;1.80;;;;;;;28.67;57.80;101464.31;5078687;28;20043;-84
2023/08/14 10:02:12;;;;;;;5.80;1.60;;;;;;;28.52;59.22;101467.56;5082399;28;20039;-84
2023/08/14 10:04:39;;;;;;;4.30;1.90;;;;;;;28.32;52.97;101468.84;5099628;28;20028;-85
2023/08/14 10:07:06;;;;;;;7.35;2.28;;;;;;;28.20;56.72;101476.25;5079219;28;20418;-86
2023/08/14 10:09:33;;;;;;;8.85;2.42;;;;;;;27.75;57.76;101471.41;5095786;28;20078;-84
2023/08/14 10:12:06;;;;;;;5.55;2.33;;;;;;;27.57;61.40;101467.75;5077984;28;20039;-78
2023/08/14 10:14:34;;;;;;;5.38;1.88;;;;;;;27.54;59.10;101465.47;5095342;28;20487;-83
2023/08/14 10:17:00;;;;;;;6.53;1.80;;;;;;;27.71;58.90;101467.50;5096027;28;20052;-87
2023/08/14 10:19:28;;;;;;;11.95;2.33;;;;;;;27.80;56.58;101457.88;5095570;28;20047;-82
2023/08/14 10:21:54;;;;;;;7.32;1.90;;;;;;;28.25;57.82;101454.47;5077255;28;20028;-83
2023/08/14 10:24:22;;;;;;;6.70;1.80;;;;;;;28.66;59.87;101447.09;5095048;28;20042;-82
2023/08/14 10:26:48;;;;;;;6.57;2.10;;;;;;;29.16;56.61;101445.47;5094940;28;20062;-82
2023/08/14 10:29:14;;;;;;;7.43;1.90;;;;;;;29.19;55.54;101449.63;5095454;28;20456;-80
2023/08/14 10:31:41;;;;;;;6.18;1.88;;;;;;;28.21;54.43;101444.25;5094095;28;20024;-82
2023/08/14 10:34:07;;;;;;;5.30;1.80;;;;;;;27.74;52.99;101448.72;5076815;28;20433;-79
2023/08/14 10:36:32;;;;;;;3.70;1.30;;;;;;;27.63;53.22;101457.75;5095093;28;20032;-77
2023/08/14 10:39:08;;;;;;;6.63;1.75;;;;;;;27.70;60.10;101446.72;5077308;28;20060;-81
2023/08/14 10:41:34;;;;;;;4.07;1.70;;;;;;;28.02;54.97;101444.44;5094792;28;20105;-81
2023/08/14 10:44:05;;;;;;;5.28;1.92;;;;;;;28.24;55.07;101441.84;5094992;28;20036;-78
2023/08/14 10:46:30;;;;;;;4.43;1.55;;;;;;;27.60;54.44;101439.09;5093683;28;20048;-80
2023/08/14 10:48:56;;;;;;;8.60;1.80;;;;;;;27.93;66.66;101441.22;5093746;28;20439;-82
2023/08/14 10:51:21;;;;;;;6.63;1.45;;;;;;;28.39;54.18;101455.00;5093955;28;20028;-80
2023/08/14 10:53:47;;;;;;;5.45;1.75;;;;;;;27.59;55.56;101451.94;5094316;28;20523;-81
2023/08/14 10:56:13;;;;;;;4.13;1.63;;;;;;;27.22;57.69;101441.19;5094717;28;20047;-83
2023/08/14 10:58:41;;;;;;;7.07;1.80;;;;;;;27.05;56.60;101449.25;5094229;28;20101;-81
2023/08/14 11:01:09;;;;;;;6.03;1.60;;;;;;;27.40;55.63;101437.56;5094319;28;20468;-81
2023/08/14 11:03:54;;;;;;;2.92;1.40;;;;;;;28.22;53.98;101427.59;5094004;28;20524;-81
2023/08/14 11:06:27;;;;;;;7.22;1.85;;;;;;;29.03;51.22;101434.81;5093906;28;20028;-82
2023/08/14 11:09:04;;;;;;;8.70;2.30;;;;;;;29.72;49.24;101428.22;5094307;28;20036;-82
2023/08/14 11:11:29;;;;;;;2.13;1.25;;;;;;;30.46;45.14;101442.63;5094502;28;20119;-80
2023/08/14 11:13:56;;;;;;;4.50;1.48;;;;;;;30.74;47.73;101436.84;5093741;28;20062;-81